createdAt,value
2022-08-26T00:00:02.156Z,50.834793
2022-08-26T00:01:02.199Z,50.834789
2022-08-26T00:02:02.171Z,50.834789
2022-08-26T00:03:02.146Z,50.834801
2022-08-26T00:04:02.193Z,50.834793
2022-08-26T00:05:02.164Z,50.834778
2022-08-26T00:06:02.104Z,50.834774
2022-08-26T00:07:02.100Z,50.834793
2022-08-26T00:08:02.091Z,50.834770
2022-08-26T00:09:02.149Z,50.834770
2022-08-26T00:10:02.149Z,50.834785
2022-08-26T00:11:02.112Z,50.834793
2022-08-26T00:12:02.063Z,50.834808
2022-08-26T00:13:02.037Z,50.834816
2022-08-26T00:14:02.048Z,50.834812
2022-08-26T00:15:02.120Z,50.834831
2022-08-26T00:16:02.042Z,50.834801
2022-08-26T00:17:02.057Z,50.834793
2022-08-26T00:18:01.987Z,50.834789
2022-08-26T00:19:02.074Z,50.834793
2022-08-26T00:20:01.999Z,50.834793
2022-08-26T00:21:06.081Z,50.834816
2022-08-26T00:22:01.996Z,50.834774
2022-08-26T00:23:02.031Z,50.834763
2022-08-26T00:24:01.988Z,50.834782
2022-08-26T00:25:01.995Z,50.834774
2022-08-26T00:26:01.939Z,50.834793
2022-08-26T00:27:01.996Z,50.834778
2022-08-26T00:28:02.009Z,50.834778
2022-08-26T00:29:01.987Z,50.834801
2022-08-26T00:30:01.925Z,50.834805
2022-08-26T00:31:01.925Z,50.834797
2022-08-26T00:32:01.925Z,50.834785
2022-08-26T00:33:01.901Z,50.834778
2022-08-26T00:34:01.887Z,50.834782
2022-08-26T00:35:01.906Z,50.834785
2022-08-26T00:36:01.867Z,50.834763
2022-08-26T00:37:01.900Z,50.834778
2022-08-26T00:38:01.875Z,50.834785
2022-08-26T00:39:01.952Z,50.834805
2022-08-26T00:40:05.246Z,50.834801
2022-08-26T00:41:01.854Z,50.834801
2022-08-26T00:42:01.830Z,50.834801
2022-08-26T00:43:01.885Z,50.834785
2022-08-26T00:44:01.813Z,50.834816
2022-08-26T00:45:01.823Z,50.834797
2022-08-26T00:46:02.407Z,50.834805
2022-08-26T00:47:02.855Z,50.834770
2022-08-26T00:48:01.830Z,50.834789
2022-08-26T00:49:01.767Z,50.834789
2022-08-26T00:50:01.786Z,50.834789
2022-08-26T00:51:01.810Z,50.834774
2022-08-26T00:52:01.792Z,50.834778
2022-08-26T00:53:01.817Z,50.834778
2022-08-26T00:54:01.769Z,50.834782
2022-08-26T00:55:01.716Z,50.834774
2022-08-26T00:56:01.695Z,50.834778
2022-08-26T00:57:01.726Z,50.834789
2022-08-26T00:58:01.695Z,50.834778
2022-08-26T00:59:01.699Z,50.834778
2022-08-26T01:00:01.721Z,50.834789
2022-08-26T01:01:01.753Z,50.834774
2022-08-26T01:02:02.718Z,50.834812
2022-08-26T01:03:01.746Z,50.834805
2022-08-26T01:04:01.644Z,50.834763
2022-08-26T01:05:01.662Z,50.834793
2022-08-26T01:06:01.651Z,50.834808
2022-08-26T01:07:01.664Z,50.834782
2022-08-26T01:08:01.639Z,50.834793
2022-08-26T01:09:01.646Z,50.834793
2022-08-26T01:10:01.647Z,50.834793
2022-08-26T01:11:01.627Z,50.834789
2022-08-26T01:12:01.698Z,50.834778
2022-08-26T01:13:01.675Z,50.834763
2022-08-26T01:14:01.600Z,50.834785
2022-08-26T01:15:01.962Z,50.834770
2022-08-26T01:16:01.599Z,50.834789
2022-08-26T01:17:01.587Z,50.834793
2022-08-26T01:18:01.583Z,50.834805
2022-08-26T01:19:01.585Z,50.834797
2022-08-26T01:20:01.582Z,50.834793
2022-08-26T01:21:01.593Z,50.834774
2022-08-26T01:22:01.569Z,50.834797
2022-08-26T01:23:03.248Z,50.834808
2022-08-26T01:24:01.548Z,50.834797
2022-08-26T01:25:03.569Z,50.834812
2022-08-26T01:26:01.529Z,50.834820
2022-08-26T01:27:01.469Z,50.834797
2022-08-26T01:28:01.518Z,50.834782
2022-08-26T01:29:01.511Z,50.834778
2022-08-26T01:30:01.477Z,50.834763
2022-08-26T01:31:01.457Z,50.834766
2022-08-26T01:32:01.478Z,50.834770
2022-08-26T01:33:01.607Z,50.834778
2022-08-26T01:34:01.480Z,50.834785
2022-08-26T01:35:01.456Z,50.834785
2022-08-26T01:36:01.564Z,50.834789
2022-08-26T01:37:01.491Z,50.834797
2022-08-26T01:38:02.335Z,50.834793
2022-08-26T01:39:01.453Z,50.834801
2022-08-26T01:40:01.480Z,50.834782
2022-08-26T01:41:01.386Z,50.834785
2022-08-26T01:42:02.998Z,50.834778
2022-08-26T01:43:02.368Z,50.834824
2022-08-26T01:44:01.391Z,50.834789
2022-08-26T01:45:01.366Z,50.834797
2022-08-26T02:02:41.297Z,50.834778
2022-08-26T02:03:42.321Z,50.834827
2022-08-26T02:04:41.373Z,50.834846
2022-08-26T02:05:41.320Z,50.834877
2022-08-26T02:06:41.333Z,50.834843
2022-08-26T02:07:41.363Z,50.834835
2022-08-26T02:08:41.287Z,50.834866
2022-08-26T02:09:41.679Z,50.834805
2022-08-26T02:10:41.315Z,50.834797
2022-08-26T02:11:41.266Z,50.834808
2022-08-26T02:12:41.289Z,50.834797
2022-08-26T02:13:41.261Z,50.834831
2022-08-26T02:14:43.564Z,50.834850
2022-08-26T02:15:41.270Z,50.834820
2022-08-26T02:16:42.289Z,50.834831
2022-08-26T02:17:41.258Z,50.834839
2022-08-26T02:18:41.252Z,50.834862
2022-08-26T02:19:41.250Z,50.834846
2022-08-26T02:20:41.253Z,50.834831
2022-08-26T02:21:41.274Z,50.834816
2022-08-26T02:22:41.929Z,50.834820
2022-08-26T02:23:42.095Z,50.834820
2022-08-26T02:25:13.989Z,50.834839
2022-08-26T02:25:41.208Z,50.834827
2022-08-26T02:26:41.171Z,50.834835
2022-08-26T02:27:41.152Z,50.834820
2022-08-26T02:28:42.080Z,50.834831
2022-08-26T02:29:41.116Z,50.834816
2022-08-26T02:30:41.169Z,50.834816
2022-08-26T02:31:41.245Z,50.834824
2022-08-26T02:32:41.379Z,50.834827
2022-08-26T02:33:43.108Z,50.834831
2022-08-26T02:34:41.116Z,50.834839
2022-08-26T02:35:41.112Z,50.834816
2022-08-26T02:36:41.100Z,50.834824
2022-08-26T02:37:41.903Z,50.834824
2022-08-26T02:38:41.043Z,50.834831
2022-08-26T02:39:41.110Z,50.834820
2022-08-26T02:40:41.983Z,50.834835
2022-08-26T02:41:44.805Z,50.834812
2022-08-26T02:42:41.991Z,50.834820
2022-08-26T02:43:41.154Z,50.834820
2022-08-26T02:44:41.104Z,50.834824
2022-08-26T02:45:42.501Z,50.834827
2022-08-26T02:46:41.684Z,50.834820
2022-08-26T02:47:42.624Z,50.834824
2022-08-26T02:48:41.005Z,50.834831
2022-08-26T02:49:41.057Z,50.834808
2022-08-26T02:50:41.017Z,50.834808
2022-08-26T02:51:41.043Z,50.834816
2022-08-26T02:52:40.991Z,50.834824
2022-08-26T02:53:41.032Z,50.834827
2022-08-26T02:54:40.971Z,50.834831
2022-08-26T02:55:40.986Z,50.834827
2022-08-26T02:56:41.003Z,50.834808
2022-08-26T02:57:40.980Z,50.834831
2022-08-26T02:58:40.993Z,50.834812
2022-08-26T02:59:41.073Z,50.834835
2022-08-26T03:00:53.093Z,50.834824
2022-08-26T03:01:42.065Z,50.834850
2022-08-26T03:02:40.899Z,50.834835
2022-08-26T03:03:40.961Z,50.834824
2022-08-26T03:04:40.927Z,50.834816
2022-08-26T03:05:41.856Z,50.834797
2022-08-26T03:06:41.529Z,50.834801
2022-08-26T03:07:41.713Z,50.834816
2022-08-26T03:08:40.912Z,50.834824
2022-08-26T03:09:40.864Z,50.834820
2022-08-26T03:10:40.883Z,50.834816
2022-08-26T03:11:40.881Z,50.834808
2022-08-26T03:12:40.874Z,50.834812
2022-08-26T03:13:40.879Z,50.834808
2022-08-26T03:14:40.828Z,50.834808
2022-08-26T03:15:40.829Z,50.834808
2022-08-26T03:16:40.808Z,50.834789
2022-08-26T03:17:40.772Z,50.834785
2022-08-26T03:18:40.782Z,50.834808
2022-08-26T03:19:40.742Z,50.834820
2022-08-26T03:20:40.767Z,50.834831
2022-08-26T03:21:40.789Z,50.834839
2022-08-26T03:22:40.747Z,50.834824
2022-08-26T03:23:40.735Z,50.834850
2022-08-26T03:24:40.753Z,50.834846
2022-08-26T03:25:41.635Z,50.834831
2022-08-26T03:26:40.726Z,50.834843
2022-08-26T03:27:41.746Z,50.834827
2022-08-26T03:28:40.765Z,50.834824
2022-08-26T03:29:45.417Z,50.834850
2022-08-26T03:30:45.464Z,50.834831
2022-08-26T03:31:41.743Z,50.834831
2022-08-26T03:32:41.365Z,50.834827
2022-08-26T03:33:40.731Z,50.834835
2022-08-26T03:34:40.681Z,50.834816
2022-08-26T03:35:40.736Z,50.834808
2022-08-26T03:36:41.687Z,50.834820
2022-08-26T03:37:40.626Z,50.834846
2022-08-26T03:38:40.627Z,50.834820
2022-08-26T03:39:40.698Z,50.834812
2022-08-26T03:40:40.606Z,50.834824
2022-08-26T03:41:40.621Z,50.834797
2022-08-26T03:42:40.588Z,50.834789
2022-08-26T03:43:40.560Z,50.834797
2022-08-26T03:44:42.088Z,50.834801
2022-08-26T03:45:40.547Z,50.834816
2022-08-26T03:46:40.618Z,50.834812
2022-08-26T04:04:38.462Z,50.834793
2022-08-26T04:05:39.463Z,50.834843
2022-08-26T04:06:38.388Z,50.834881
2022-08-26T04:07:38.384Z,50.834797
2022-08-26T04:08:38.366Z,50.834805
2022-08-26T04:09:38.457Z,50.834801
2022-08-26T04:10:38.402Z,50.834785
2022-08-26T04:11:38.938Z,50.834805
2022-08-26T04:12:38.409Z,50.834782
2022-08-26T04:13:38.370Z,50.834770
2022-08-26T04:14:38.447Z,50.834766
2022-08-26T04:15:38.348Z,50.834778
2022-08-26T04:16:38.325Z,50.834778
2022-08-26T04:17:38.320Z,50.834793
2022-08-26T04:18:38.362Z,50.834793
2022-08-26T04:19:39.338Z,50.834782
2022-08-26T04:20:38.327Z,50.834785
2022-08-26T04:21:38.273Z,50.834789
2022-08-26T04:22:38.312Z,50.834770
2022-08-26T04:23:47.092Z,50.834782
2022-08-26T04:24:40.362Z,50.834778
2022-08-26T04:25:38.268Z,50.834778
2022-08-26T04:26:39.515Z,50.834770
2022-08-26T04:27:38.993Z,50.834778
2022-08-26T04:28:38.382Z,50.834778
2022-08-26T04:29:38.237Z,50.834785
2022-08-26T04:30:38.232Z,50.834785
2022-08-26T04:31:38.229Z,50.834789
2022-08-26T04:32:38.248Z,50.834778
2022-08-26T04:33:41.738Z,50.834801
2022-08-26T04:34:38.174Z,50.834793
2022-08-26T04:35:38.170Z,50.834797
2022-08-26T04:36:39.222Z,50.834793
2022-08-26T04:37:38.208Z,50.834782
2022-08-26T04:38:38.147Z,50.834797
2022-08-26T04:39:38.144Z,50.834816
2022-08-26T04:40:38.141Z,50.834812
2022-08-26T04:41:38.180Z,50.834827
2022-08-26T04:42:38.123Z,50.834824
2022-08-26T04:43:38.105Z,50.834812
2022-08-26T04:44:38.135Z,50.834801
2022-08-26T04:45:38.240Z,50.834816
2022-08-26T04:46:39.960Z,50.834816
2022-08-26T04:47:39.087Z,50.834820
2022-08-26T04:48:38.045Z,50.834808
2022-08-26T04:49:38.057Z,50.834835
2022-08-26T04:50:38.066Z,50.834831
2022-08-26T04:51:39.508Z,50.834820
2022-08-26T04:52:38.033Z,50.834805
2022-08-26T04:53:38.053Z,50.834835
2022-08-26T04:54:43.109Z,50.834820
2022-08-26T04:55:38.388Z,50.834827
2022-08-26T04:56:38.063Z,50.834820
2022-08-26T04:57:38.175Z,50.834824
2022-08-26T04:58:38.033Z,50.834835
2022-08-26T04:59:39.573Z,50.834843
2022-08-26T05:00:39.002Z,50.834839
2022-08-26T05:01:39.507Z,50.834797
2022-08-26T05:02:37.962Z,50.834789
2022-08-26T05:03:37.997Z,50.834812
2022-08-26T05:04:37.979Z,50.834824
2022-08-26T05:05:37.963Z,50.834820
2022-08-26T05:06:37.926Z,50.834801
2022-08-26T05:07:37.936Z,50.834782
2022-08-26T05:08:37.932Z,50.834797
2022-08-26T05:09:37.914Z,50.834816
2022-08-26T05:10:38.581Z,50.834793
2022-08-26T05:11:38.008Z,50.834797
2022-08-26T05:12:38.506Z,50.834770
2022-08-26T05:13:37.886Z,50.834770
2022-08-26T05:14:37.866Z,50.834778
2022-08-26T05:15:37.951Z,50.834793
2022-08-26T05:16:40.391Z,50.834778
2022-08-26T05:17:37.895Z,50.834789
2022-08-26T05:18:37.901Z,50.834778
2022-08-26T05:19:38.628Z,50.834789
2022-08-26T05:20:38.793Z,50.834755
2022-08-26T05:21:37.827Z,50.834789
2022-08-26T05:22:38.539Z,50.834793
2022-08-26T05:23:37.831Z,50.834797
2022-08-26T05:24:37.818Z,50.834778
2022-08-26T05:25:38.624Z,50.834812
2022-08-26T05:26:38.772Z,50.834782
2022-08-26T05:27:37.790Z,50.834782
2022-08-26T05:28:37.758Z,50.834797
2022-08-26T05:29:37.874Z,50.834831
2022-08-26T05:30:38.668Z,50.834801
2022-08-26T05:31:38.333Z,50.834805
2022-08-26T05:32:37.763Z,50.834789
2022-08-26T05:33:37.748Z,50.834785
2022-08-26T05:34:38.114Z,50.834789
2022-08-26T05:35:37.775Z,50.834805
2022-08-26T05:36:38.018Z,50.834789
2022-08-26T05:37:38.607Z,50.834770
2022-08-26T05:38:37.802Z,50.834785
2022-08-26T05:39:37.741Z,50.834770
2022-08-26T05:40:37.857Z,50.834801
2022-08-26T05:41:38.381Z,50.834793
2022-08-26T05:42:37.684Z,50.834785
2022-08-26T05:43:37.776Z,50.834789
2022-08-26T05:44:55.750Z,50.834774
2022-08-26T05:45:41.242Z,50.834789
2022-08-26T05:46:38.702Z,50.834808
2022-08-26T05:47:37.813Z,50.834812
2022-08-26T05:48:37.690Z,50.834789
2022-08-26T05:49:43.740Z,50.834774
2022-08-26T05:50:39.426Z,50.834778
2022-08-26T05:51:37.695Z,50.834782
2022-08-26T05:52:37.738Z,50.834785
2022-08-26T05:53:40.420Z,50.834805
2022-08-26T05:54:38.088Z,50.834797
2022-08-26T05:55:38.461Z,50.834816
2022-08-26T05:56:38.446Z,50.834820
2022-08-26T05:57:42.863Z,50.834805
2022-08-26T05:58:40.419Z,50.834782
2022-08-26T05:59:38.598Z,50.834782
2022-08-26T06:00:37.512Z,50.834766
2022-08-26T06:01:37.560Z,50.834770
2022-08-26T06:02:37.582Z,50.834774
2022-08-26T06:03:37.497Z,50.834793
2022-08-26T06:04:37.516Z,50.834778
2022-08-26T06:05:39.186Z,50.834782
2022-08-26T06:06:38.471Z,50.834782
2022-08-26T06:07:37.484Z,50.834774
2022-08-26T06:08:37.464Z,50.834755
2022-08-26T06:09:37.495Z,50.834751
2022-08-26T06:10:37.437Z,50.834747
2022-08-26T06:11:37.449Z,50.834743
2022-08-26T06:12:38.842Z,50.834770
2022-08-26T06:13:38.428Z,50.834774
2022-08-26T06:14:37.470Z,50.834797
2022-08-26T06:15:37.454Z,50.834812
2022-08-26T06:16:37.591Z,50.834793
2022-08-26T06:17:37.447Z,50.834801
2022-08-26T06:18:37.432Z,50.834793
2022-08-26T06:19:37.407Z,50.834782
2022-08-26T06:20:37.392Z,50.834770
2022-08-26T06:21:38.065Z,50.834778
2022-08-26T06:22:37.581Z,50.834774
2022-08-26T06:23:37.337Z,50.834766
2022-08-26T06:24:37.360Z,50.834766
2022-08-26T06:25:37.367Z,50.834782
2022-08-26T06:26:39.499Z,50.834812
2022-08-26T06:27:37.721Z,50.834774
2022-08-26T06:28:37.339Z,50.834778
2022-08-26T06:29:37.560Z,50.834793
2022-08-26T06:30:37.356Z,50.834782
2022-08-26T06:31:37.285Z,50.834774
2022-08-26T06:32:38.309Z,50.834801
2022-08-26T06:33:37.325Z,50.834793
2022-08-26T06:34:37.307Z,50.834801
2022-08-26T06:35:37.257Z,50.834816
2022-08-26T06:36:37.244Z,50.834808
2022-08-26T06:37:37.315Z,50.834816
2022-08-26T06:38:37.245Z,50.834827
2022-08-26T06:39:41.101Z,50.834774
2022-08-26T06:40:37.206Z,50.834755
2022-08-26T06:41:41.327Z,50.834793
2022-08-26T06:42:39.202Z,50.834778
2022-08-26T06:43:37.184Z,50.834785
2022-08-26T06:44:37.190Z,50.834824
2022-08-26T06:45:37.163Z,50.834846
2022-08-26T06:46:37.237Z,50.834805
2022-08-26T06:47:37.217Z,50.834789
2022-08-26T06:48:37.167Z,50.834827
2022-08-26T06:49:38.049Z,50.834839
2022-08-26T06:50:37.193Z,50.834793
2022-08-26T06:51:37.148Z,50.834793
2022-08-26T06:52:37.330Z,50.834785
2022-08-26T06:53:37.221Z,50.834808
2022-08-26T06:54:37.197Z,50.834793
2022-08-26T06:55:37.162Z,50.834797
2022-08-26T06:56:37.132Z,50.834797
2022-08-26T06:57:37.783Z,50.834793
2022-08-26T06:58:37.114Z,50.834782
2022-08-26T06:59:37.942Z,50.834797
2022-08-26T07:00:37.575Z,50.834793
2022-08-26T07:01:37.960Z,50.834782
2022-08-26T07:02:38.026Z,50.834812
2022-08-26T07:03:39.568Z,50.834812
2022-08-26T07:04:37.036Z,50.834812
2022-08-26T07:05:37.038Z,50.834820
2022-08-26T07:06:37.047Z,50.834816
2022-08-26T07:07:37.008Z,50.834820
2022-08-26T07:08:37.059Z,50.834816
2022-08-26T07:09:37.042Z,50.834816
2022-08-26T07:10:36.986Z,50.834774
2022-08-26T07:11:37.027Z,50.834820
2022-08-26T07:12:37.156Z,50.834820
2022-08-26T07:13:37.673Z,50.834812
2022-08-26T07:14:37.584Z,50.834816
2022-08-26T07:15:36.981Z,50.834808
2022-08-26T07:16:37.588Z,50.834805
2022-08-26T07:17:36.925Z,50.834785
2022-08-26T07:18:36.942Z,50.834808
2022-08-26T07:19:36.926Z,50.834789
2022-08-26T07:20:36.986Z,50.834824
2022-08-26T07:21:36.961Z,50.834808
2022-08-26T07:22:36.907Z,50.834808
2022-08-26T07:23:36.911Z,50.834812
2022-08-26T07:24:36.888Z,50.834812
2022-08-26T07:25:36.924Z,50.834797
2022-08-26T07:26:36.893Z,50.834816
2022-08-26T07:27:37.649Z,50.834816
2022-08-26T07:28:38.342Z,50.834801
2022-08-26T07:29:36.940Z,50.834801
2022-08-26T07:30:36.940Z,50.834827
2022-08-26T07:31:39.375Z,50.834812
2022-08-26T07:32:39.484Z,50.834808
2022-08-26T07:33:36.826Z,50.834805
2022-08-26T07:34:36.820Z,50.834812
2022-08-26T07:35:36.825Z,50.834808
2022-08-26T07:36:36.870Z,50.834824
2022-08-26T07:37:39.124Z,50.834808
2022-08-26T07:38:36.831Z,50.834816
2022-08-26T07:39:37.452Z,50.834816
2022-08-26T07:40:36.787Z,50.834812
2022-08-26T07:41:36.771Z,50.834816
2022-08-26T07:42:36.760Z,50.834816
2022-08-26T07:43:36.738Z,50.834831
2022-08-26T07:44:36.713Z,50.834820
2022-08-26T07:45:37.119Z,50.834831
2022-08-26T07:46:36.698Z,50.834835
2022-08-26T07:47:36.729Z,50.834824
2022-08-26T07:48:36.832Z,50.834824
2022-08-26T07:49:37.613Z,50.834812
2022-08-26T07:50:48.841Z,50.834831
2022-08-26T07:51:37.745Z,50.834816
2022-08-26T07:52:36.705Z,50.834793
2022-08-26T07:53:36.678Z,50.834812
2022-08-26T07:54:36.662Z,50.834793
2022-08-26T07:55:36.713Z,50.834812
2022-08-26T07:56:36.641Z,50.834839
2022-08-26T07:57:36.647Z,50.834831
2022-08-26T07:58:36.668Z,50.834827
2022-08-26T07:59:36.714Z,50.834827
2022-08-26T08:00:36.667Z,50.834827
2022-08-26T08:01:37.402Z,50.834812
2022-08-26T08:02:37.457Z,50.834820
2022-08-26T08:03:36.720Z,50.834816
2022-08-26T08:04:36.715Z,50.834831
2022-08-26T08:05:36.650Z,50.834824
2022-08-26T08:06:36.640Z,50.834816
2022-08-26T08:07:44.207Z,50.834812
2022-08-26T08:08:37.693Z,50.834816
2022-08-26T08:09:36.611Z,50.834801
2022-08-26T08:10:36.599Z,50.834820
2022-08-26T08:11:36.568Z,50.834816
2022-08-26T08:12:36.601Z,50.834805
2022-08-26T08:13:36.556Z,50.834805
2022-08-26T08:14:36.638Z,50.834793
2022-08-26T08:15:36.508Z,50.834805
2022-08-26T08:16:40.173Z,50.834820
2022-08-26T08:17:38.492Z,50.834820
2022-08-26T08:18:37.046Z,50.834820
2022-08-26T08:19:39.028Z,50.834816
2022-08-26T08:20:36.482Z,50.834835
2022-08-26T08:21:36.481Z,50.834839
2022-08-26T08:22:36.443Z,50.834835
2022-08-26T08:23:36.421Z,50.834816
2022-08-26T08:25:10.557Z,50.834827
2022-08-26T08:35:39.271Z,50.834763
2022-08-26T08:36:39.489Z,50.834782
2022-08-26T08:37:39.434Z,50.834763
2022-08-26T08:38:39.196Z,50.834835
2022-08-26T08:39:39.314Z,50.834892
2022-08-26T08:40:40.573Z,50.834869
2022-08-26T08:41:39.922Z,50.834747
2022-08-26T08:42:40.765Z,50.834816
2022-08-26T08:43:39.821Z,50.834839
2022-08-26T08:44:39.903Z,50.834812
2022-08-26T08:45:39.445Z,50.834793
2022-08-26T08:46:39.326Z,50.834805
2022-08-26T08:47:38.940Z,50.834824
2022-08-26T08:48:39.354Z,50.834805
2022-08-26T08:49:40.335Z,50.834808
2022-08-26T08:50:39.894Z,50.834827
2022-08-26T08:51:39.160Z,50.834835
2022-08-26T08:52:39.346Z,50.834839
2022-08-26T08:53:39.167Z,50.834843
2022-08-26T08:54:39.831Z,50.834831
2022-08-26T08:55:39.949Z,50.834824
2022-08-26T08:56:39.297Z,50.834805
2022-08-26T08:57:39.424Z,50.834820
2022-08-26T08:58:39.181Z,50.834812
2022-08-26T08:59:38.983Z,50.834843
2022-08-26T09:00:40.078Z,50.834835
2022-08-26T09:01:40.937Z,50.834816
2022-08-26T09:02:39.095Z,50.834820
2022-08-26T09:03:39.004Z,50.834801
2022-08-26T09:04:39.734Z,50.834839
2022-08-26T09:05:39.802Z,50.834843
2022-08-26T09:06:39.065Z,50.834850
2022-08-26T09:07:39.659Z,50.834839
2022-08-26T09:08:39.043Z,50.834843
2022-08-26T09:09:39.891Z,50.834869
2022-08-26T09:10:38.956Z,50.834793
2022-08-26T09:11:39.110Z,50.834858
2022-08-26T09:12:39.070Z,50.834892
2022-08-26T09:13:39.196Z,50.834873
2022-08-26T09:14:39.027Z,50.834885
2022-08-26T09:15:39.024Z,50.834896
2022-08-26T09:16:39.153Z,50.834854
2022-08-26T09:17:40.049Z,50.834850
2022-08-26T09:19:11.031Z,50.834873
2022-08-26T09:19:38.615Z,50.834869
2022-08-26T09:20:38.663Z,50.834869
2022-08-26T09:21:38.616Z,50.834846
2022-08-26T09:22:38.593Z,50.834892
2022-08-26T09:23:38.549Z,50.834846
2022-08-26T09:24:41.866Z,50.834839
2022-08-26T09:25:39.550Z,50.834801
2022-08-26T09:26:38.575Z,50.834812
2022-08-26T09:27:38.532Z,50.834869
2022-08-26T09:28:38.553Z,50.834835
2022-08-26T09:29:38.587Z,50.834869
2022-08-26T09:30:38.602Z,50.834850
2022-08-26T09:31:38.511Z,50.834835
2022-08-26T09:32:38.507Z,50.834866
2022-08-26T09:33:38.613Z,50.834869
2022-08-26T09:34:38.534Z,50.834858
2022-08-26T09:35:41.874Z,50.834873
2022-08-26T09:36:41.052Z,50.834869
2022-08-26T09:37:39.555Z,50.834858
2022-08-26T09:38:38.487Z,50.834862
2022-08-26T09:39:38.468Z,50.834869
2022-08-26T09:40:38.518Z,50.834866
2022-08-26T09:41:38.471Z,50.834850
2022-08-26T09:42:38.449Z,50.834862
2022-08-26T09:43:38.472Z,50.834854
2022-08-26T09:44:38.457Z,50.834854
2022-08-26T09:45:38.474Z,50.834862
2022-08-26T09:47:38.420Z,50.834858
2022-08-26T09:48:40.570Z,50.834877
2022-08-26T09:49:38.419Z,50.834873
2022-08-26T09:51:13.906Z,50.834858
2022-08-26T09:51:44.979Z,50.834850
2022-08-26T09:52:50.533Z,50.834843
2022-08-26T09:53:38.901Z,50.834854
2022-08-26T09:54:39.406Z,50.834873
2022-08-26T09:55:39.060Z,50.834873
2022-08-26T09:56:39.505Z,50.834869
2022-08-26T09:57:43.085Z,50.834877
2022-08-26T09:58:40.115Z,50.834873
2022-08-26T09:59:39.845Z,50.834850
2022-08-26T10:00:39.970Z,50.834862
2022-08-26T10:01:40.316Z,50.834873
2022-08-26T10:02:40.138Z,50.834850
2022-08-26T10:03:40.483Z,50.834850
2022-08-26T10:04:40.114Z,50.834846
2022-08-26T10:05:39.210Z,50.834873
2022-08-26T10:06:39.384Z,50.834877
2022-08-26T10:07:40.602Z,50.834888
2022-08-26T10:08:39.129Z,50.834911
2022-08-26T10:09:39.354Z,50.834892
2022-08-26T10:10:48.201Z,50.834911
2022-08-26T10:11:41.557Z,50.834896
2022-08-26T10:12:40.605Z,50.834900
2022-08-26T10:13:40.283Z,50.834900
2022-08-26T10:15:40.393Z,50.834866
2022-08-26T10:16:40.387Z,50.834854
2022-08-26T10:17:39.619Z,50.834850
2022-08-26T10:18:39.384Z,50.834846
2022-08-26T10:19:56.094Z,50.834820
2022-08-26T10:20:41.027Z,50.834869
2022-08-26T10:21:43.209Z,50.834843
2022-08-26T10:22:46.413Z,50.834805
2022-08-26T10:24:40.412Z,50.834820
2022-08-26T10:25:39.607Z,50.834805
2022-08-26T10:26:39.364Z,50.834831
2022-08-26T10:27:40.490Z,50.834820
2022-08-26T10:28:40.771Z,50.834843
2022-08-26T10:29:38.725Z,50.834835
2022-08-26T10:30:38.950Z,50.834869
2022-08-26T10:31:40.657Z,50.834862
2022-08-26T10:32:41.532Z,50.834877
2022-08-26T10:33:39.414Z,50.834873
2022-08-26T10:34:38.547Z,50.834858
2022-08-26T10:35:38.519Z,50.834881
2022-08-26T10:36:52.378Z,50.834862
2022-08-26T10:37:41.557Z,50.834839
2022-08-26T10:38:39.446Z,50.834835
2022-08-26T10:39:39.422Z,50.834877
2022-08-26T10:40:38.728Z,50.834850
2022-08-26T10:41:39.361Z,50.834877
2022-08-26T10:42:38.966Z,50.834858
2022-08-26T10:43:40.990Z,50.834835
2022-08-26T10:44:38.631Z,50.834862
2022-08-26T10:45:39.465Z,50.834839
2022-08-26T10:46:38.236Z,50.834839
2022-08-26T10:47:38.436Z,50.834835
2022-08-26T10:48:38.765Z,50.834831
2022-08-26T10:49:38.968Z,50.834812
2022-08-26T10:50:40.425Z,50.834827
2022-08-26T10:51:39.479Z,50.834820
2022-08-26T10:52:38.373Z,50.834808
2022-08-26T10:53:39.466Z,50.834835
2022-08-26T10:54:40.022Z,50.834812
2022-08-26T10:55:38.482Z,50.834816
2022-08-26T10:56:39.327Z,50.834808
2022-08-26T10:57:38.955Z,50.834808
2022-08-26T10:58:44.628Z,50.834831
2022-08-26T10:59:40.872Z,50.834820
2022-08-26T11:00:39.453Z,50.834805
2022-08-26T11:01:40.810Z,50.834820
2022-08-26T11:02:38.719Z,50.834816
2022-08-26T11:03:38.497Z,50.834805
2022-08-26T11:04:38.640Z,50.834827
2022-08-26T11:05:43.400Z,50.834839
2022-08-26T11:06:40.007Z,50.834850
2022-08-26T11:07:39.929Z,50.834839
2022-08-26T11:08:38.290Z,50.834854
2022-08-26T11:09:40.007Z,50.834831
2022-08-26T11:10:38.959Z,50.834827
2022-08-26T11:11:40.445Z,50.834824
2022-08-26T11:12:38.932Z,50.834816
2022-08-26T11:13:41.577Z,50.834805
2022-08-26T11:14:58.449Z,50.834831
2022-08-26T11:15:40.334Z,50.834812
2022-08-26T11:16:42.917Z,50.834789
2022-08-26T11:17:39.523Z,50.834797
2022-08-26T11:18:38.855Z,50.834797
2022-08-26T11:19:59.643Z,50.834805
2022-08-26T11:20:41.753Z,50.834820
2022-08-26T11:21:38.537Z,50.834824
2022-08-26T11:22:47.548Z,50.834839
2022-08-26T11:23:40.348Z,50.834827
2022-08-26T11:24:38.412Z,50.834812
2022-08-26T11:25:38.409Z,50.834816
2022-08-26T11:26:56.303Z,50.834785
2022-08-26T11:27:39.815Z,50.834797
2022-08-26T11:28:38.396Z,50.834816
2022-08-26T11:29:39.025Z,50.834835
2022-08-26T11:30:38.490Z,50.834812
2022-08-26T11:31:37.862Z,50.834805
2022-08-26T11:32:40.451Z,50.834820
2022-08-26T11:33:39.181Z,50.834789
2022-08-26T11:34:38.557Z,50.834797
2022-08-26T11:35:38.439Z,50.834801
2022-08-26T11:36:40.441Z,50.834808
2022-08-26T11:37:40.622Z,50.834839
2022-08-26T11:38:38.461Z,50.834805
2022-08-26T11:39:38.658Z,50.834839
2022-08-26T11:40:37.745Z,50.834827
2022-08-26T11:41:37.689Z,50.834831
2022-08-26T11:42:38.458Z,50.834782
2022-08-26T11:43:39.008Z,50.834824
2022-08-26T11:44:38.710Z,50.834801
2022-08-26T11:45:38.535Z,50.834824
2022-08-26T11:46:38.880Z,50.834797
2022-08-26T11:47:38.301Z,50.834778
2022-08-26T11:48:38.337Z,50.834740
2022-08-26T11:49:38.571Z,50.834763
2022-08-26T11:50:38.484Z,50.834747
2022-08-26T11:51:40.408Z,50.834755
2022-08-26T11:52:39.627Z,50.834774
2022-08-26T11:53:37.642Z,50.834782
2022-08-26T11:54:38.472Z,50.834789
2022-08-26T11:55:37.670Z,50.834782
2022-08-26T11:56:38.950Z,50.834785
2022-08-26T11:57:38.282Z,50.834793
2022-08-26T11:58:38.452Z,50.834793
2022-08-26T11:59:38.479Z,50.834785
2022-08-26T12:00:38.955Z,50.834778
2022-08-26T12:01:39.455Z,50.834785
2022-08-26T12:02:38.377Z,50.834774
2022-08-26T12:03:39.099Z,50.834785
2022-08-26T12:04:38.544Z,50.834789
2022-08-26T12:05:39.477Z,50.834774
2022-08-26T12:06:43.424Z,50.834782
2022-08-26T12:07:42.541Z,50.834782
2022-08-26T12:08:39.955Z,50.834770
2022-08-26T12:09:41.316Z,50.834778
2022-08-26T12:10:37.530Z,50.834774